Time;durP1;ratioP1;P1;durP2;ratioP2;P2;SDS_P1;SDS_P2;PMS_P1;PMS_P2;Temp;Humidity;BMP_temperature;BMP_pressure;BME280_temperature;BME280_humidity;BME280_pressure;Samples;Min_cycle;Max_cycle;Signal;HPM_P1;HPM_P2
2021/04/08 00:02:24;;;;;;;0.90;0.90;;;;;;;1.75;63.55;99978.50;5082488;28;20200;-74
2021/04/08 00:04:51;;;;;;;0.70;0.70;;;;;;;1.78;62.69;99975.72;5084550;28;20202;-74
2021/04/08 00:07:18;;;;;;;0.60;0.60;;;;;;;1.81;63.00;99976.44;5077471;28;20242;-74
2021/04/08 00:09:46;;;;;;;31.17;22.07;;;;;;;1.86;63.23;99986.84;5085187;28;20913;-74
2021/04/08 00:12:14;;;;;;;3.17;0.70;;;;;;;1.83;63.06;99979.88;5079919;28;20632;-74
2021/04/08 00:14:41;;;;;;;0.47;0.47;;;;;;;1.92;63.02;99983.91;5081913;28;20288;-74
2021/04/08 00:17:08;;;;;;;0.80;0.33;;;;;;;1.93;62.67;99990.06;5076918;28;20298;-75
2021/04/08 00:19:35;;;;;;;0.73;0.73;;;;;;;1.94;62.87;99987.34;5077137;28;20203;-74
2021/04/08 00:22:02;;;;;;;1.23;0.73;;;;;;;1.93;62.75;99996.22;5075474;28;20207;-74
2021/04/08 00:24:30;;;;;;;2.20;0.60;;;;;;;1.86;62.05;99989.50;5082244;28;20269;-74
2021/04/08 00:26:58;;;;;;;0.87;0.40;;;;;;;1.74;61.89;99979.44;5076282;28;20209;-74
2021/04/08 00:29:25;;;;;;;0.30;0.30;;;;;;;1.77;62.03;100000.47;5078200;28;20207;-74
2021/04/08 00:31:52;;;;;;;0.20;0.20;;;;;;;1.75;61.92;100002.31;5077175;28;20296;-75
2021/04/08 00:34:20;;;;;;;0.30;0.30;;;;;;;1.66;61.84;99993.00;5088465;28;20380;-75
2021/04/08 00:36:47;;;;;;;0.57;0.30;;;;;;;1.64;61.71;99999.28;5079303;28;20679;-75
2021/04/08 00:39:14;;;;;;;0.57;0.40;;;;;;;1.59;61.73;100009.22;5072362;28;20222;-75
2021/04/08 00:41:42;;;;;;;0.30;0.30;;;;;;;1.39;61.53;99997.69;5075103;28;20193;-75
2021/04/08 00:44:10;;;;;;;1.90;0.40;;;;;;;1.44;61.66;100008.94;5079826;28;20576;-75
2021/04/08 00:46:37;;;;;;;1.70;0.40;;;;;;;1.42;61.64;100013.44;5068832;28;20207;-75
2021/04/08 00:49:05;;;;;;;0.90;0.30;;;;;;;1.41;61.68;100016.13;5080177;28;20648;-75
2021/04/08 00:51:32;;;;;;;5.20;0.80;;;;;;;1.38;61.79;100019.78;5085017;28;20196;-75
2021/04/08 00:54:00;;;;;;;0.10;0.10;;;;;;;1.37;62.02;100017.19;5069561;28;20571;-75
2021/04/08 00:56:27;;;;;;;0.30;0.30;;;;;;;1.33;61.93;100019.09;5068307;28;20283;-75
2021/04/08 00:58:54;;;;;;;0.80;0.40;;;;;;;0.97;61.99;99970.41;5084648;28;20233;-75
2021/04/08 01:01:22;;;;;;;0.20;0.20;;;;;;;0.92;62.03;99960.88;5084982;28;20619;-70
2021/04/08 01:03:50;;;;;;;0.53;0.40;;;;;;;0.99;61.85;99979.13;5087399;28;20295;-70
2021/04/08 01:06:17;;;;;;;1.13;0.30;;;;;;;1.20;61.56;100023.16;5080002;28;20190;-70
2021/04/08 01:08:44;;;;;;;0.27;0.27;;;;;;;1.14;61.94;100032.22;5078928;28;20248;-70
2021/04/08 01:11:12;;;;;;;0.50;0.50;;;;;;;1.07;61.83;100029.88;5080627;28;20327;-70
2021/04/08 01:13:41;;;;;;;0.70;0.33;;;;;;;0.99;61.87;100032.00;5084723;28;20208;-70
2021/04/08 01:16:14;;;;;;;1.60;0.50;;;;;;;0.87;62.25;100036.81;5078161;28;20282;-70
2021/04/08 01:18:56;;;;;;;0.77;0.50;;;;;;;0.76;62.46;100041.69;5091449;28;20263;-70
2021/04/08 01:21:29;;;;;;;0.30;0.30;;;;;;;0.71;62.24;100048.94;5077379;28;20207;-75
2021/04/08 01:24:36;;;;;;;1.03;0.50;;;;;;;0.71;62.65;100046.28;5089802;28;20299;-74
2021/04/08 01:27:26;;;;;;;1.07;0.60;;;;;;;0.69;62.42;100045.50;5076277;28;20284;-74
2021/04/08 01:30:09;;;;;;;2.47;1.80;;;;;;;0.71;62.07;100053.34;5073834;28;20238;-74
2021/04/08 01:32:41;;;;;;;118.13;39.03;;;;;;;0.72;62.24;100055.94;5087222;28;20293;-75
2021/04/08 01:35:10;;;;;;;13.47;2.40;;;;;;;0.76;62.67;100051.38;5079777;28;20720;-71
2021/04/08 01:37:45;;;;;;;2.00;1.13;;;;;;;0.78;63.16;100055.69;5080174;28;20708;-71
2021/04/08 01:40:15;;;;;;;0.87;0.83;;;;;;;0.84;62.94;100047.53;5085583;28;20657;-71
2021/04/08 01:42:47;;;;;;;1.30;1.10;;;;;;;0.91;63.06;100056.06;5084142;28;20200;-71
2021/04/08 01:45:18;;;;;;;1.33;0.60;;;;;;;0.95;62.84;100056.81;5083658;28;20211;-71
2021/04/08 01:47:47;;;;;;;4.63;0.73;;;;;;;0.97;62.78;100060.25;5084457;28;20202;-71
2021/04/08 01:50:17;;;;;;;1.20;0.50;;;;;;;0.98;62.48;100065.50;5081493;28;20669;-71
2021/04/08 01:52:48;;;;;;;1.23;0.50;;;;;;;0.90;61.82;100065.78;5084196;28;20270;-75
2021/04/08 01:55:18;;;;;;;3.77;1.10;;;;;;;0.90;61.87;100070.19;5084177;28;20199;-75
2021/04/08 01:57:47;;;;;;;2.00;1.23;;;;;;;0.84;62.09;100068.66;5079851;28;20375;-75
2021/04/08 02:00:20;;;;;;;1.03;0.60;;;;;;;0.84;62.16;100073.09;5090138;28;20200;-75
2021/04/08 02:02:50;;;;;;;1.10;0.37;;;;;;;0.77;62.09;100076.88;5082649;28;20203;-75
2021/04/08 02:05:18;;;;;;;0.80;0.80;;;;;;;0.73;62.18;100073.50;5086734;28;20244;-74
2021/04/08 02:07:47;;;;;;;1.13;0.40;;;;;;;0.67;61.88;100080.81;5084707;28;20323;-74
2021/04/08 02:10:16;;;;;;;1.40;0.50;;;;;;;0.59;62.35;100087.22;5087192;28;20198;-75
2021/04/08 02:12:47;;;;;;;1.60;0.73;;;;;;;0.57;62.02;100083.78;5088705;28;20287;-75
2021/04/08 02:15:17;;;;;;;0.97;0.60;;;;;;;0.43;62.10;100074.66;5083056;28;20214;-74
2021/04/08 02:17:46;;;;;;;0.40;0.20;;;;;;;0.48;61.96;100093.84;5084123;28;20320;-75
2021/04/08 02:20:17;;;;;;;0.93;0.30;;;;;;;0.43;62.16;100103.72;5086417;28;20202;-74
2021/04/08 02:22:46;;;;;;;0.93;0.40;;;;;;;0.24;62.30;100079.75;5079836;28;20204;-75
2021/04/08 02:25:14;;;;;;;1.20;0.23;;;;;;;0.31;62.30;100102.41;5082419;28;20209;-75
2021/04/08 02:27:43;;;;;;;0.37;0.37;;;;;;;0.26;62.74;100105.19;5084061;28;20201;-75
2021/04/08 02:30:14;;;;;;;0.70;0.43;;;;;;;0.29;62.86;100112.13;5078064;28;20717;-75
2021/04/08 02:32:43;;;;;;;2.73;0.30;;;;;;;0.31;62.55;100107.69;5078457;28;20249;-74
2021/04/08 02:35:13;;;;;;;0.63;0.40;;;;;;;0.35;62.56;100113.72;5077326;28;20194;-75
2021/04/08 02:37:42;;;;;;;0.20;0.20;;;;;;;0.38;62.75;100113.59;5080162;28;20210;-74
2021/04/08 02:40:11;;;;;;;4.13;0.70;;;;;;;0.29;62.82;100101.56;5075515;28;20749;-75
2021/04/08 02:42:38;;;;;;;0.27;0.27;;;;;;;0.44;62.94;100118.63;5080543;28;20253;-75
2021/04/08 02:45:08;;;;;;;0.40;0.40;;;;;;;0.48;62.69;100121.09;5077860;28;20245;-75
2021/04/08 02:47:35;;;;;;;0.20;0.20;;;;;;;0.51;62.54;100125.41;5088111;28;20200;-75
2021/04/08 02:50:03;;;;;;;0.97;0.60;;;;;;;0.17;62.31;100065.91;5089872;28;20968;-75
2021/04/08 02:52:38;;;;;;;1.73;0.53;;;;;;;0.52;62.19;100121.84;5072418;28;20705;-74
2021/04/08 02:55:14;;;;;;;5.17;0.90;;;;;;;0.51;62.50;100125.41;5070647;28;20199;-74
2021/04/08 02:57:52;;;;;;;0.87;0.10;;;;;;;0.48;62.50;100133.44;5071917;28;20242;-75
2021/04/08 03:00:21;;;;;;;0.70;0.37;;;;;;;0.31;62.42;100099.75;5076116;28;20207;-75
2021/04/08 03:02:53;;;;;;;0.50;0.47;;;;;;;0.58;62.94;100140.97;5078569;28;20227;-76
2021/04/08 03:05:21;;;;;;;0.50;0.23;;;;;;;0.60;62.69;100140.91;5076609;28;20624;-75
2021/04/08 03:07:52;;;;;;;1.67;0.30;;;;;;;0.62;62.70;100141.75;5079894;28;20459;-74
2021/04/08 03:10:21;;;;;;;0.20;0.20;;;;;;;0.65;62.94;100144.28;5072633;28;20199;-74
2021/04/08 03:12:50;;;;;;;0.50;0.30;;;;;;;0.24;62.60;100085.03;5073519;28;20213;-71
2021/04/08 03:15:24;;;;;;;0.37;0.37;;;;;;;0.66;63.06;100147.78;5080068;28;20259;-75
2021/04/08 03:17:53;;;;;;;675.83;250.70;;;;;;;0.60;62.90;100141.78;5073820;28;20229;-74
2021/04/08 03:20:20;;;;;;;10.30;4.57;;;;;;;0.62;62.51;100144.41;5080857;28;20268;-75
2021/04/08 03:22:51;;;;;;;1.47;1.37;;;;;;;0.70;62.88;100157.31;5078154;28;20217;-73
2021/04/08 03:25:19;;;;;;;1.13;1.03;;;;;;;0.73;63.59;100160.69;5078696;28;20210;-73
2021/04/08 03:27:48;;;;;;;6.83;1.67;;;;;;;0.75;63.62;100161.50;5081906;28;20561;-73
2021/04/08 03:30:17;;;;;;;1.17;0.73;;;;;;;0.79;63.79;100165.75;5074449;28;20232;-74
2021/04/08 03:32:45;;;;;;;2.33;1.30;;;;;;;0.80;64.07;100161.31;5084435;28;20201;-74
2021/04/08 03:35:13;;;;;;;0.67;0.53;;;;;;;0.48;63.22;100110.53;5070265;28;20203;-69
2021/04/08 03:37:42;;;;;;;2.20;0.33;;;;;;;0.77;63.07;100170.22;5074319;28;20190;-69
2021/04/08 03:40:10;;;;;;;0.87;0.33;;;;;;;0.63;62.93;100143.47;5083168;28;20211;-69
2021/04/08 03:42:40;;;;;;;2.17;0.50;;;;;;;0.67;62.90;100158.28;5080649;28;20292;-69
2021/04/08 03:45:10;;;;;;;1.33;1.13;;;;;;;0.83;63.53;100185.84;5075614;28;20204;-69
2021/04/08 03:47:40;;;;;;;0.80;0.80;;;;;;;0.82;63.23;100183.28;5071693;28;20256;-69
2021/04/08 03:50:10;;;;;;;1.40;1.03;;;;;;;0.83;62.91;100191.13;5078697;28;20203;-69
2021/04/08 03:52:38;;;;;;;1.17;0.87;;;;;;;0.85;63.03;100184.00;5082243;28;20200;-73
2021/04/08 03:55:08;;;;;;;1.00;1.00;;;;;;;0.81;62.83;100181.53;5081930;28;20710;-70
2021/04/08 03:57:38;;;;;;;6.37;5.40;;;;;;;0.83;62.85;100183.22;5074889;28;20198;-69
2021/04/08 04:00:10;;;;;;;1.90;1.60;;;;;;;0.83;62.63;100196.41;5086470;28;20219;-74
2021/04/08 04:02:39;;;;;;;0.80;0.80;;;;;;;0.83;62.28;100191.13;5084276;28;20198;-73
2021/04/08 04:05:08;;;;;;;0.40;0.33;;;;;;;0.64;62.01;100163.69;5073745;28;20224;-73
2021/04/08 04:07:36;;;;;;;2.53;1.03;;;;;;;0.79;61.72;100192.16;5074767;28;20787;-70
2021/04/08 04:10:06;;;;;;;2.73;0.67;;;;;;;0.60;61.71;100173.47;5074221;28;20204;-74
2021/04/08 04:12:35;;;;;;;0.33;0.33;;;;;;;0.74;62.12;100194.13;5078082;28;20224;-69
2021/04/08 04:15:04;;;;;;;2.73;0.50;;;;;;;0.71;62.08;100188.97;5077465;28;20268;-69
2021/04/08 04:17:33;;;;;;;2.53;0.30;;;;;;;0.68;61.84;100191.72;5087012;28;20641;-69
2021/04/08 04:20:01;;;;;;;0.20;0.20;;;;;;;0.65;61.99;100197.13;5074689;28;20199;-73
2021/04/08 04:22:39;;;;;;;2.97;0.60;;;;;;;0.64;61.70;100195.38;5078425;28;20214;-69
2021/04/08 04:25:07;;;;;;;0.30;0.30;;;;;;;0.68;61.93;100199.63;5086458;28;20244;-69
2021/04/08 04:27:35;;;;;;;2.27;0.67;;;;;;;0.73;61.75;100195.03;5077561;28;20249;-69
2021/04/08 04:30:04;;;;;;;1.20;0.40;;;;;;;0.80;62.04;100200.97;5086690;28;20234;-69
2021/04/08 04:32:33;;;;;;;0.20;0.20;;;;;;;0.88;61.86;100205.03;5079395;28;20218;-69
2021/04/08 04:35:00;;;;;;;0.23;0.23;;;;;;;0.97;61.98;100209.16;5079893;28;20227;-69
2021/04/08 04:37:27;;;;;;;0.37;0.20;;;;;;;1.07;61.68;100209.66;5074041;28;20207;-68
2021/04/08 04:39:54;;;;;;;2.33;0.63;;;;;;;1.11;61.46;100205.97;5083473;28;20311;-70
2021/04/08 04:42:21;;;;;;;0.63;0.30;;;;;;;1.20;61.50;100216.19;5084763;28;20285;-69
2021/04/08 04:44:49;;;;;;;2.53;0.90;;;;;;;1.27;61.40;100212.41;5076337;28;20187;-69
2021/04/08 04:47:16;;;;;;;8.40;0.50;;;;;;;1.42;61.68;100217.09;5083854;28;20204;-68
2021/04/08 04:49:48;;;;;;;1.80;0.63;;;;;;;1.55;61.84;100217.50;5088665;28;20282;-68
2021/04/08 04:52:15;;;;;;;0.33;0.33;;;;;;;1.66;61.25;100206.47;5079787;28;20246;-69
2021/04/08 04:54:42;;;;;;;0.47;0.40;;;;;;;1.77;61.13;100213.06;5078452;28;20286;-73
2021/04/08 04:57:09;;;;;;;6.07;0.60;;;;;;;1.88;60.89;100215.28;5074572;28;20744;-74
2021/04/08 04:59:37;;;;;;;2.23;0.43;;;;;;;2.11;60.72;100222.25;5082442;28;20223;-73
2021/04/08 05:02:04;;;;;;;0.47;0.47;;;;;;;2.25;60.96;100224.34;5081148;28;20598;-72
2021/04/08 05:04:32;;;;;;;0.93;0.53;;;;;;;2.18;60.18;100203.41;5076080;28;20249;-68
2021/04/08 05:07:00;;;;;;;1.23;0.50;;;;;;;2.48;59.53;100221.59;5080633;28;20200;-68
2021/04/08 05:09:27;;;;;;;3.10;0.43;;;;;;;2.60;59.85;100215.75;5071025;28;20282;-68
2021/04/08 05:11:54;;;;;;;3.43;0.47;;;;;;;2.73;59.65;100222.22;5077445;28;20206;-68
2021/04/08 05:14:22;;;;;;;0.50;0.47;;;;;;;2.88;59.10;100211.88;5079589;28;20203;-68
2021/04/08 05:16:49;;;;;;;0.30;0.30;;;;;;;3.12;59.12;100224.03;5081964;28;20208;-74
2021/04/08 05:19:16;;;;;;;0.30;0.23;;;;;;;3.25;58.90;100224.31;5081197;28;20215;-73
2021/04/08 05:21:43;;;;;;;0.40;0.30;;;;;;;3.40;58.32;100229.78;5082272;28;20201;-68
2021/04/08 05:24:11;;;;;;;0.37;0.37;;;;;;;3.51;58.26;100231.94;5087340;28;20228;-69
2021/04/08 05:26:39;;;;;;;0.53;0.53;;;;;;;3.65;57.30;100239.22;5080111;28;20731;-69
2021/04/08 05:29:06;;;;;;;0.60;0.10;;;;;;;3.79;58.33;100231.47;5076553;28;20205;-66
2021/04/08 05:31:33;;;;;;;0.30;0.30;;;;;;;3.98;57.50;100232.31;5087324;28;20206;-68
2021/04/08 05:34:01;;;;;;;0.37;0.20;;;;;;;4.15;57.65;100230.63;5080845;28;20226;-69
2021/04/08 05:36:31;;;;;;;58.13;36.47;;;;;;;4.29;57.38;100234.31;5080836;28;20207;-68
2021/04/08 05:38:58;;;;;;;7.23;3.20;;;;;;;4.44;56.81;100232.66;5074403;28;20715;-68
2021/04/08 05:41:26;;;;;;;1.53;0.50;;;;;;;4.77;56.67;100248.69;5074348;28;20194;-68
2021/04/08 05:43:53;;;;;;;2.77;0.60;;;;;;;4.98;56.41;100252.03;5077577;28;20203;-68
2021/04/08 05:46:20;;;;;;;0.37;0.37;;;;;;;5.22;54.50;100261.38;5078162;28;20716;-68
2021/04/08 05:48:48;;;;;;;1.13;0.60;;;;;;;5.48;56.02;100256.44;5077227;28;20307;-68
2021/04/08 05:51:15;;;;;;;2.83;0.60;;;;;;;5.62;54.49;100259.22;5075473;28;20585;-69
2021/04/08 05:53:42;;;;;;;1.27;0.40;;;;;;;5.81;53.06;100264.34;5072143;28;20193;-69
2021/04/08 05:56:10;;;;;;;1.60;0.50;;;;;;;6.00;52.90;100262.41;5075371;28;20209;-69
2021/04/08 05:58:38;;;;;;;0.97;0.77;;;;;;;6.20;54.03;100270.16;5078731;28;20245;-68
2021/04/08 06:01:05;;;;;;;1.80;0.50;;;;;;;6.34;52.37;100269.34;5084089;28;20283;-69
2021/04/08 06:03:32;;;;;;;1.60;0.60;;;;;;;6.43;51.96;100267.97;5080169;28;20694;-68
2021/04/08 06:05:59;;;;;;;0.30;0.30;;;;;;;6.52;51.69;100267.41;5078263;28;20286;-69
2021/04/08 06:08:28;;;;;;;0.60;0.60;;;;;;;6.60;50.33;100264.28;5078810;28;20224;-72
2021/04/08 06:10:56;;;;;;;0.30;0.30;;;;;;;6.79;49.77;100264.94;5086512;28;20293;-75
2021/04/08 06:13:23;;;;;;;1.20;0.50;;;;;;;6.95;49.72;100267.50;5079209;28;20259;-73
2021/04/08 06:15:53;;;;;;;0.63;0.50;;;;;;;7.02;49.65;100272.38;5085496;28;20222;-74
2021/04/08 06:18:20;;;;;;;0.40;0.40;;;;;;;7.02;49.36;100263.53;5079552;28;20757;-73
2021/04/08 06:20:47;;;;;;;0.70;0.30;;;;;;;7.06;49.14;100254.41;5079412;28;20199;-72
2021/04/08 06:23:15;;;;;;;1.00;0.20;;;;;;;7.23;48.33;100264.03;5080387;28;20385;-73
2021/04/08 06:25:43;;;;;;;0.17;0.17;;;;;;;7.25;48.81;100260.31;5072269;28;20567;-72
2021/04/08 06:28:10;;;;;;;3.33;0.47;;;;;;;7.40;47.44;100267.38;5071503;28;20205;-74
2021/04/08 06:30:37;;;;;;;1.90;0.50;;;;;;;7.40;47.55;100262.03;5077605;28;20223;-72
2021/04/08 06:33:06;;;;;;;1.27;0.50;;;;;;;7.38;47.54;100265.75;5087729;28;20198;-73
2021/04/08 06:35:33;;;;;;;0.97;0.50;;;;;;;7.55;46.65;100260.19;5080424;28;20238;-72
2021/04/08 06:38:00;;;;;;;3.83;0.60;;;;;;;7.60;47.09;100257.22;5078970;28;20660;-69
2021/04/08 06:40:27;;;;;;;0.40;0.40;;;;;;;7.74;45.92;100266.09;5074999;28;20206;-68
2021/04/08 06:42:55;;;;;;;0.30;0.30;;;;;;;8.06;47.12;100271.19;5087141;28;20229;-70
2021/04/08 06:45:24;;;;;;;0.40;0.40;;;;;;;8.26;46.59;100268.06;5072945;28;20738;-70
2021/04/08 06:47:56;;;;;;;0.40;0.40;;;;;;;8.21;44.58;100277.34;5081414;28;20223;-70
2021/04/08 06:50:28;;;;;;;0.33;0.33;;;;;;;8.27;46.21;100271.63;5070752;28;20281;-70
2021/04/08 06:52:57;;;;;;;0.50;0.37;;;;;;;8.46;45.66;100282.84;5088137;28;20670;-69
2021/04/08 06:55:25;;;;;;;0.27;0.27;;;;;;;8.51;45.29;100282.53;5086749;28;20202;-68
2021/04/08 06:57:52;;;;;;;0.70;0.30;;;;;;;8.34;45.31;100287.19;5081126;28;20677;-68
2021/04/08 07:00:20;;;;;;;0.63;0.40;;;;;;;8.49;45.51;100285.31;5073658;28;20314;-68
2021/04/08 07:02:48;;;;;;;0.40;0.40;;;;;;;8.43;43.16;100290.22;5078995;28;20286;-69
2021/04/08 07:05:16;;;;;;;0.90;0.50;;;;;;;8.52;44.86;100292.25;5082194;28;20288;-69
2021/04/08 07:07:44;;;;;;;0.23;0.23;;;;;;;8.81;45.38;100285.81;5087450;28;20765;-69
2021/04/08 07:10:11;;;;;;;0.53;0.40;;;;;;;9.02;45.42;100288.84;5074937;28;20264;-68
2021/04/08 07:12:39;;;;;;;3.03;0.20;;;;;;;9.29;44.92;100294.13;5088592;28;20200;-68
2021/04/08 07:15:07;;;;;;;0.30;0.30;;;;;;;9.43;43.68;100269.88;5088568;28;20199;-70
2021/04/08 07:17:34;;;;;;;4.53;0.53;;;;;;;9.83;44.87;100301.91;5087774;28;20298;-70
2021/04/08 07:20:03;;;;;;;3.60;0.67;;;;;;;9.57;41.11;100293.91;5080550;28;20598;-69
2021/04/08 07:22:30;;;;;;;0.70;0.40;;;;;;;9.71;42.89;100298.28;5089188;28;20285;-70
2021/04/08 07:24:58;;;;;;;2.67;0.30;;;;;;;9.79;40.60;100287.00;5081026;28;20233;-70
2021/04/08 07:27:32;;;;;;;0.20;0.20;;;;;;;9.99;41.26;100304.34;5084011;28;20196;-73
2021/04/08 07:30:00;;;;;;;0.30;0.30;;;;;;;10.30;41.98;100293.09;5089661;28;20200;-73
2021/04/08 07:32:30;;;;;;;1.40;0.57;;;;;;;10.70;43.10;100296.34;5081755;28;20194;-73
2021/04/08 07:34:59;;;;;;;0.50;0.50;;;;;;;11.11;44.56;100297.72;5088183;28;20249;-73
2021/04/08 07:37:29;;;;;;;0.93;0.50;;;;;;;11.50;44.82;100299.97;5088265;28;20201;-73
2021/04/08 07:39:59;;;;;;;0.40;0.37;;;;;;;11.83;43.64;100295.63;5081330;28;20222;-73
2021/04/08 07:42:31;;;;;;;0.43;0.43;;;;;;;12.17;43.72;100293.75;5082276;28;20209;-73
2021/04/08 07:45:00;;;;;;;1.20;0.40;;;;;;;12.36;43.41;100290.41;5085239;28;20609;-73
2021/04/08 07:47:29;;;;;;;0.30;0.30;;;;;;;12.37;39.87;100292.13;5079647;28;20204;-73
2021/04/08 07:50:11;;;;;;;2.00;0.50;;;;;;;12.53;42.09;100289.84;5077734;28;20642;-73
2021/04/08 07:52:40;;;;;;;0.40;0.40;;;;;;;12.77;43.05;100295.03;5068847;28;20207;-69
2021/04/08 07:55:11;;;;;;;0.40;0.40;;;;;;;12.99;42.56;100299.47;5081802;28;20243;-70
2021/04/08 07:57:53;;;;;;;0.50;0.50;;;;;;;13.09;41.88;100302.22;5074443;28;20587;-69
2021/04/08 08:00:24;;;;;;;0.53;0.53;;;;;;;13.19;42.53;100303.19;5072672;28;20227;-73
2021/04/08 08:02:52;;;;;;;2.83;0.43;;;;;;;13.23;41.76;100304.66;5077484;28;20226;-73
2021/04/08 08:05:25;;;;;;;0.40;0.40;;;;;;;13.41;40.87;100299.47;5080543;28;20380;-73
2021/04/08 08:07:55;;;;;;;0.83;0.67;;;;;;;13.43;41.14;100300.19;5083703;28;20593;-73
2021/04/08 08:10:25;;;;;;;0.67;0.60;;;;;;;13.31;40.07;100303.00;5086169;28;20507;-73
2021/04/08 08:12:53;;;;;;;1.17;0.93;;;;;;;13.30;41.09;100301.28;5091619;28;20229;-73
2021/04/08 08:15:23;;;;;;;0.77;0.77;;;;;;;13.16;41.98;100249.47;5083844;28;20219;-73
2021/04/08 08:17:51;;;;;;;3.87;1.20;;;;;;;13.51;41.20;100303.13;5090748;28;20281;-72
2021/04/08 08:20:20;;;;;;;1.40;1.10;;;;;;;13.47;39.75;100286.34;5083600;28;20246;-69
2021/04/08 08:22:48;;;;;;;2.50;0.87;;;;;;;13.54;40.97;100302.84;5082972;28;20675;-69
2021/04/08 08:25:23;;;;;;;1.93;0.80;;;;;;;13.46;40.95;100289.13;5087347;28;20226;-70
2021/04/08 08:27:53;;;;;;;2.60;0.80;;;;;;;13.24;38.94;100291.03;5080005;28;20206;-70
2021/04/08 08:30:24;;;;;;;0.70;0.70;;;;;;;13.17;40.26;100295.25;5083328;28;20201;-73
2021/04/08 08:33:05;;;;;;;1.47;0.70;;;;;;;13.33;41.11;100294.75;5090862;28;20206;-73
2021/04/08 08:35:34;;;;;;;0.63;0.63;;;;;;;13.23;39.45;100288.47;5081902;28;20251;-72
2021/04/08 08:38:09;;;;;;;0.87;0.50;;;;;;;13.21;41.03;100275.13;5091873;28;20358;-70
2021/04/08 08:40:37;;;;;;;0.90;0.80;;;;;;;13.48;41.21;100292.59;5080099;28;20297;-69
2021/04/08 08:43:06;;;;;;;1.10;0.60;;;;;;;13.55;40.80;100293.75;5087456;28;20211;-72
2021/04/08 08:45:35;;;;;;;0.93;0.50;;;;;;;13.51;41.18;100297.72;5082653;28;20661;-70
2021/04/08 08:48:06;;;;;;;2.30;0.70;;;;;;;13.47;36.82;100299.84;5084972;28;20269;-69
2021/04/08 08:50:35;;;;;;;0.93;0.70;;;;;;;13.28;40.35;100297.88;5084909;28;20280;-69
2021/04/08 08:53:03;;;;;;;0.67;0.53;;;;;;;13.34;40.51;100301.88;5076916;28;20205;-69
2021/04/08 08:55:31;;;;;;;0.70;0.70;;;;;;;13.22;38.25;100303.78;5072324;28;20315;-69
2021/04/08 08:57:59;;;;;;;2.27;0.73;;;;;;;13.26;40.29;100305.22;5091216;28;20223;-69
2021/04/08 09:00:29;;;;;;;1.57;0.70;;;;;;;12.77;40.02;100213.34;5090951;28;20275;-69
2021/04/08 09:03:01;;;;;;;1.33;0.80;;;;;;;13.12;39.55;100259.69;5078051;28;20204;-69
2021/04/08 09:05:30;;;;;;;0.73;0.70;;;;;;;13.51;39.61;100303.13;5086354;28;20632;-69
2021/04/08 09:08:00;;;;;;;0.67;0.67;;;;;;;13.56;40.02;100295.47;5081583;28;20696;-70
2021/04/08 09:10:48;;;;;;;1.43;0.57;;;;;;;13.62;41.04;100294.91;5086901;28;20206;-70
2021/04/08 09:13:19;;;;;;;0.77;0.60;;;;;;;13.68;39.96;100299.78;5082396;28;20199;-69
2021/04/08 09:15:47;;;;;;;0.50;0.50;;;;;;;13.54;38.89;100302.84;5080845;28;20188;-69
2021/04/08 09:18:20;;;;;;;1.57;0.43;;;;;;;13.77;40.56;100287.31;5077176;28;20303;-70
2021/04/08 09:20:48;;;;;;;1.03;0.70;;;;;;;13.84;39.72;100300.16;5085432;28;20195;-70
2021/04/08 09:23:18;;;;;;;1.80;0.70;;;;;;;14.01;40.01;100303.19;5076223;28;20249;-70
2021/04/08 09:25:56;;;;;;;3.93;0.80;;;;;;;14.08;39.15;100286.31;5077849;28;20193;-69
2021/04/08 09:28:25;;;;;;;1.00;0.50;;;;;;;13.66;36.17;100274.78;5080958;28;20677;-70
2021/04/08 09:31:04;;;;;;;15.43;0.80;;;;;;;13.88;34.48;100289.94;5084004;28;20206;-70
2021/04/08 09:33:57;;;;;;;1.23;0.40;;;;;;;14.02;38.64;100302.19;5087432;28;20214;-70
2021/04/08 09:36:36;;;;;;;0.50;0.50;;;;;;;14.10;35.72;100294.28;5078153;28;20231;-70
2021/04/08 09:39:22;;;;;;;2.43;0.60;;;;;;;14.21;35.75;100302.25;5089519;28;20211;-73
2021/04/08 09:41:52;;;;;;;0.57;0.57;;;;;;;14.39;38.45;100295.19;5082452;28;20199;-73
2021/04/08 09:44:21;;;;;;;0.60;0.27;;;;;;;14.46;39.49;100293.66;5077437;28;20205;-70
2021/04/08 09:46:53;;;;;;;0.50;0.50;;;;;;;14.66;39.38;100290.97;5069702;28;20283;-70
2021/04/08 09:49:48;;;;;;;0.53;0.53;;;;;;;14.78;39.81;100287.16;5074741;28;20203;-72
2021/04/08 09:52:17;;;;;;;0.80;0.70;;;;;;;14.99;39.49;100290.53;5069204;28;20695;-70
2021/04/08 09:54:53;;;;;;;0.50;0.47;;;;;;;14.87;37.78;100292.56;5081140;28;20567;-70
2021/04/08 09:57:40;;;;;;;0.97;0.57;;;;;;;14.85;37.83;100291.00;5085631;28;20438;-70
2021/04/08 10:00:12;;;;;;;0.93;0.50;;;;;;;14.99;37.81;100293.25;5074894;28;20699;-70
2021/04/08 10:02:56;;;;;;;0.67;0.67;;;;;;;14.85;35.89;100288.28;5086343;28;20213;-69
2021/04/08 10:05:29;;;;;;;2.77;0.50;;;;;;;14.90;36.24;100291.41;5079273;28;20221;-72
2021/04/08 10:07:58;;;;;;;0.63;0.50;;;;;;;14.86;34.63;100292.69;5082159;28;20676;-72
2021/04/08 10:10:42;;;;;;;0.93;0.50;;;;;;;15.19;37.12;100302.19;5083545;28;20287;-72
2021/04/08 10:13:22;;;;;;;1.00;0.43;;;;;;;15.28;34.16;100300.47;5084506;28;20200;-72
2021/04/08 10:15:52;;;;;;;0.43;0.40;;;;;;;15.32;36.33;100300.06;5083877;28;20287;-72
2021/04/08 10:18:22;;;;;;;0.40;0.40;;;;;;;15.20;34.73;100257.91;5086883;28;20546;-72
2021/04/08 10:20:51;;;;;;;0.27;0.27;;;;;;;15.51;36.57;100299.16;5078260;28;20225;-69
2021/04/08 10:23:30;;;;;;;0.37;0.37;;;;;;;15.50;36.46;100300.16;5086294;28;20224;-68
2021/04/08 10:25:58;;;;;;;0.30;0.30;;;;;;;15.43;36.91;100299.03;5075565;28;20224;-72
2021/04/08 10:28:26;;;;;;;1.83;0.40;;;;;;;15.40;36.86;100302.03;5081789;28;20192;-72
2021/04/08 10:30:53;;;;;;;1.43;0.53;;;;;;;15.32;37.25;100305.47;5087379;28;20261;-73
2021/04/08 10:33:23;;;;;;;0.20;0.20;;;;;;;15.22;33.21;100296.50;5082320;28;20228;-72
2021/04/08 10:35:50;;;;;;;0.47;0.47;;;;;;;15.22;35.66;100299.22;5082615;28;20630;-72
2021/04/08 10:38:17;;;;;;;0.30;0.30;;;;;;;15.27;37.16;100296.06;5085416;28;20263;-72
2021/04/08 10:40:51;;;;;;;0.50;0.50;;;;;;;15.33;37.21;100295.50;5079483;28;20208;-72
2021/04/08 10:43:19;;;;;;;1.03;0.27;;;;;;;15.29;33.31;100296.78;5077354;28;20839;-72
2021/04/08 10:45:54;;;;;;;0.43;0.30;;;;;;;15.42;36.39;100294.63;5075676;28;20597;-72
2021/04/08 10:48:23;;;;;;;0.43;0.43;;;;;;;15.25;29.01;100290.81;5071188;28;20480;-71
2021/04/08 10:50:51;;;;;;;0.50;0.50;;;;;;;14.85;30.40;100282.88;5076553;28;20198;-72
2021/04/08 10:53:19;;;;;;;0.87;0.50;;;;;;;15.27;33.99;100288.81;5077655;28;20617;-71
2021/04/08 10:55:47;;;;;;;0.30;0.30;;;;;;;15.44;34.50;100288.06;5078281;28;20204;-72
2021/04/08 10:58:22;;;;;;;0.60;0.60;;;;;;;15.41;33.60;100279.38;5079182;28;20270;-71
2021/04/08 11:00:50;;;;;;;1.40;0.70;;;;;;;15.50;34.77;100281.19;5077945;28;20224;-72
2021/04/08 11:03:17;;;;;;;0.60;0.60;;;;;;;15.45;33.92;100269.97;5080132;28;20201;-72
2021/04/08 11:05:46;;;;;;;0.60;0.60;;;;;;;15.19;36.23;100219.19;5075595;28;20246;-72
2021/04/08 11:08:13;;;;;;;0.90;0.67;;;;;;;15.35;35.47;100277.28;5076424;28;20225;-72
2021/04/08 11:10:40;;;;;;;0.60;0.60;;;;;;;15.42;35.18;100267.56;5075935;28;20217;-72
2021/04/08 11:13:09;;;;;;;0.60;0.60;;;;;;;15.61;36.95;100272.97;5082772;28;20205;-72
2021/04/08 11:15:39;;;;;;;1.80;0.80;;;;;;;15.38;31.67;100274.28;5079797;28;20200;-73
2021/04/08 11:18:10;;;;;;;0.97;0.40;;;;;;;15.58;35.55;100267.81;5075390;28;20281;-72
2021/04/08 11:20:40;;;;;;;0.40;0.40;;;;;;;15.57;34.82;100271.50;5080834;28;20252;-72
2021/04/08 11:23:09;;;;;;;0.20;0.20;;;;;;;15.63;36.18;100262.84;5076416;28;20223;-72
2021/04/08 11:25:38;;;;;;;0.40;0.40;;;;;;;15.62;32.54;100261.13;5076205;28;20292;-72
2021/04/08 11:28:07;;;;;;;1.60;0.60;;;;;;;15.40;34.69;100264.16;5073226;28;20295;-72
2021/04/08 11:30:37;;;;;;;0.30;0.30;;;;;;;15.33;35.73;100269.31;5078669;28;20295;-72
2021/04/08 11:33:06;;;;;;;0.53;0.53;;;;;;;15.31;36.26;100265.88;5075570;28;20203;-72
2021/04/08 11:35:37;;;;;;;0.30;0.30;;;;;;;15.01;34.62;100268.78;5075927;28;20288;-72
2021/04/08 11:38:14;;;;;;;0.30;0.30;;;;;;;14.83;35.43;100265.94;5076626;28;20200;-72
2021/04/08 11:40:43;;;;;;;0.50;0.50;;;;;;;14.78;35.46;100270.94;5080964;28;20314;-72
2021/04/08 11:43:21;;;;;;;0.40;0.40;;;;;;;15.00;35.08;100265.22;5072672;28;20702;-72
2021/04/08 11:45:49;;;;;;;0.60;0.60;;;;;;;15.32;36.22;100258.63;5076494;28;20296;-72